Terminal Aerodrome Forecast
Issued by NWS Quad Cities IA IL

Home | Current Version | Previous Version | Text Only | Print | Product List | Glossary On
Versions: 1 2 3 4 5 6 7 8 9 10 11 12 13 14 15 16 17 18 19 20 21 22 23 24 25 26 27 28 29 30 31 32 33 34 35 36 37 38 39 40 41
754
FTUS43 KDVN 020957 AAE
TAFMLI
TAF AMD
KMLI 020957Z 0210/0306 03005KT 6SM BR SCT008 OVC015
      TEMPO 0210/0211 4SM BR BKN008 OVC015
     FM021500 05008KT P6SM SCT030 OVC050
     FM022100 04007KT P6SM VCSH BKN040
     FM030000 04003KT P6SM SCT050=

USA.gov is the U.S. government's official web portal to all federal, state and local government web resources and services.